Brainerd Lakes Regional Airport

Airport
ICAO code: 
KBRD
IATA Code: 
BRD
Summary
ICAO Region: 
NAM
Territory: 
Location: 
Brainerd, Minnesota,
Serving: 
Brainerd
Elevation: 
1226 ft
Coordinates: 
Aerial View: 
46° 23' 52.001" N, 94° 8' 13.999" W
Airport CFIT: 
Altimeter Temperature Error Correction
Airport GND: 
Aircraft Ground De/Anti Icing
Airport RE: 
Landing on Contaminated Runways
Metar
Observation
KBRD 021553Z AUTO 30012KT 10SM CLR 03/M02 A2989 RMK AO2 SLP130 T00281022 TSNO
Station
Brainerd, Brainerd-Crow Wing County Regional Airport
Date/Time
2021-12-02 15:53:00
Wind direction
300°
Wind speed
12 kts
Lowest cloud amount
n/a
Temperature
2.8°C
Dew point
-2.2°C
Humidity
69%
Weather condition
n/a

Description

Brainerd Lakes Regional Airport is a public use airport located 6 km northeast of the central business district of Brainerd, a city in Crow Wing County, Minnesota.

Climatology

Humid Continental climate (Köppen climate classification Dfb) - Variable weather patterns and a large seasonal temperature variance. Summers are often warm and humid with frequent thunderstorms and winters can be very cold with frequent snowfall and persistent snow cover.

Runways

Designator Length Width Surface Rops
1/19 853 23 ASP No/No
12/30 1244 23 ASP Yes/Yes
5/23 1981 46 ASP Yes/Yes
16/34 1981 46 CONC-E Yes/Yes
Airport map: 
Aerial View: 

SKYbrary Partners:

Safety knowledge contributed by: